TimeCST,TemperatureF,Dew PointF,Humidity,Sea Level PressureIn,VisibilityMPH,Wind Direction,Wind SpeedMPH,Gust SpeedMPH,PrecipitationIn,Events,Conditions,WindDirDegrees,DateUTC
12:56 AM,30.9,21.0,67,30.27,10.0,WNW,4.6,-,N/A,,Clear,290,2013-02-17 06:56:00
1:56 AM,30.0,21.0,69,30.26,10.0,Calm,Calm,-,N/A,,Clear,0,2013-02-17 07:56:00
2:56 AM,30.0,19.9,66,30.27,10.0,NNW,4.6,-,N/A,,Clear,340,2013-02-17 08:56:00
3:56 AM,30.0,19.9,66,30.27,10.0,NW,3.5,-,N/A,,Clear,310,2013-02-17 09:56:00
4:56 AM,27.0,19.9,75,30.29,10.0,NNW,3.5,-,N/A,,Clear,340,2013-02-17 10:56:00
5:56 AM,26.1,21.0,81,30.31,10.0,Calm,Calm,-,N/A,,Clear,0,2013-02-17 11:56:00
6:56 AM,27.0,21.0,78,30.32,10.0,Calm,Calm,-,N/A,,Clear,0,2013-02-17 12:56:00
7:56 AM,33.1,21.0,61,30.35,10.0,NNW,3.5,-,N/A,,Clear,340,2013-02-17 13:56:00
8:56 AM,37.0,15.1,41,30.36,10.0,Calm,Calm,-,N/A,,Clear,0,2013-02-17 14:56:00
9:36 AM,39.2,14.0,36,30.36,10.0,Calm,Calm,-,N/A,,Partly Cloudy,0,2013-02-17 15:36:00
9:56 AM,41.0,14.0,33,30.37,10.0,Calm,Calm,-,N/A,,Clear,0,2013-02-17 15:56:00
10:56 AM,45.0,7.0,21,30.36,10.0,Calm,Calm,-,N/A,,Partly Cloudy,0,2013-02-17 16:56:00
11:56 AM,48.0,7.0,19,30.33,10.0,Calm,Calm,-,N/A,,Mostly Cloudy,0,2013-02-17 17:56:00
12:56 PM,51.1,6.1,16,30.29,10.0,Variable,3.5,-,N/A,,Clear,0,2013-02-17 18:56:00
1:56 PM,52.0,9.0,18,30.27,10.0,WNW,9.2,-,N/A,,Clear,300,2013-02-17 19:56:00
2:56 PM,53.1,10.9,19,30.26,10.0,West,11.5,-,N/A,,Clear,260,2013-02-17 20:56:00
3:56 PM,53.1,12.0,20,30.25,10.0,Variable,4.6,-,N/A,,Clear,0,2013-02-17 21:56:00
4:56 PM,52.0,14.0,22,30.24,10.0,WSW,3.5,-,N/A,,Clear,250,2013-02-17 22:56:00
5:56 PM,46.9,16.0,29,30.26,10.0,Calm,Calm,-,N/A,,Clear,0,2013-02-17 23:56:00
6:56 PM,42.1,28.0,58,30.27,10.0,Calm,Calm,-,N/A,,Clear,0,2013-02-18 00:56:00
7:56 PM,37.9,28.9,70,30.28,10.0,Calm,Calm,-,N/A,,Clear,0,2013-02-18 01:56:00
8:56 PM,36.0,28.0,73,30.29,10.0,Calm,Calm,-,N/A,,Clear,0,2013-02-18 02:56:00
9:56 PM,36.0,28.0,73,30.30,10.0,South,5.8,-,N/A,,Clear,170,2013-02-18 03:56:00
10:56 PM,37.0,25.0,62,30.30,10.0,South,4.6,-,N/A,,Clear,170,2013-02-18 04:56:00
11:56 PM,36.0,26.1,67,30.30,10.0,South,3.5,-,N/A,,Clear,170,2013-02-18 05:56:00